Time;durP1;ratioP1;P1;durP2;ratioP2;P2;SDS_P1;SDS_P2;PMS_P1;PMS_P2;Temp;Humidity;BMP_temperature;BMP_pressure;BME280_temperature;BME280_humidity;BME280_pressure;Samples;Min_cycle;Max_cycle;Signal;HPM_P1;HPM_P2
2021/01/21 00:02:00;;;;;;;20.00;11.02;;;;;;;1.98;100.00;98798.31;20974925;28;20044;-72
2021/01/21 00:12:01;;;;;;;17.83;10.82;;;;;;;1.99;100.00;98802.53;20983031;28;20403;-72
2021/01/21 00:22:02;;;;;;;21.70;11.80;;;;;;;2.05;99.83;98789.34;20982263;28;20056;-72
2021/01/21 00:32:03;;;;;;;21.45;12.05;;;;;;;2.22;98.82;98786.00;20978931;28;20059;-72
2021/01/21 00:42:05;;;;;;;18.52;10.18;;;;;;;2.66;94.73;98779.56;20979615;28;20072;-72
2021/01/21 00:52:06;;;;;;;20.63;11.25;;;;;;;2.93;91.62;98761.91;20980008;28;20093;-72
2021/01/21 01:02:06;;;;;;;22.02;12.00;;;;;;;3.09;89.55;98744.72;20977936;28;20429;-72
2021/01/21 01:12:08;;;;;;;15.98;8.68;;;;;;;3.14;89.07;98741.91;20978390;28;20036;-72
2021/01/21 01:22:11;;;;;;;18.70;8.70;;;;;;;3.19;88.55;98747.69;20978309;28;20056;-72
2021/01/21 01:32:12;;;;;;;13.13;7.78;;;;;;;3.05;90.95;98735.44;20976853;28;20052;-73
2021/01/21 01:42:13;;;;;;;20.73;9.40;;;;;;;3.10;90.73;98728.28;20977475;28;20040;-72
2021/01/21 01:52:14;;;;;;;17.55;8.85;;;;;;;3.12;90.42;98721.28;20976862;28;20102;-72
2021/01/21 02:02:15;;;;;;;17.60;9.90;;;;;;;3.08;89.94;98714.63;20975171;28;20103;-72
2021/01/21 02:12:35;;;;;;;12.10;7.35;;;;;;;3.22;87.35;98696.66;20976570;28;20041;-72
2021/01/21 02:23:10;;;;;;;12.40;6.97;;;;;;;3.20;88.49;98684.72;20992204;28;20592;-72
2021/01/21 02:33:40;;;;;;;13.45;7.45;;;;;;;3.18;88.50;98674.47;20990272;28;20101;-72
2021/01/21 02:43:41;;;;;;;13.18;7.82;;;;;;;3.16;91.01;98665.94;20990555;28;20512;-73
2021/01/21 02:53:43;;;;;;;14.73;7.63;;;;;;;3.15;89.21;98666.03;20989265;28;20600;-72
2021/01/21 03:03:47;;;;;;;14.27;7.35;;;;;;;3.14;90.56;98647.09;20988564;28;20060;-73
2021/01/21 03:13:48;;;;;;;11.90;6.25;;;;;;;3.31;84.98;98665.13;20988037;28;20040;-72
2021/01/21 03:23:49;;;;;;;8.98;5.32;;;;;;;3.35;85.08;98656.28;20968847;28;20079;-72
2021/01/21 03:33:50;;;;;;;11.05;5.63;;;;;;;3.37;84.89;98643.28;20985248;28;20740;-72
2021/01/21 03:43:51;;;;;;;15.00;7.25;;;;;;;3.37;83.73;98628.63;20984929;28;20087;-72
2021/01/21 03:53:51;;;;;;;12.02;5.10;;;;;;;3.42;84.36;98630.94;20985251;28;20040;-72
2021/01/21 04:03:52;;;;;;;13.73;5.65;;;;;;;3.31;85.85;98635.84;20984268;28;20079;-72
2021/01/21 04:13:53;;;;;;;10.32;5.53;;;;;;;3.27;85.67;98649.88;20983443;28;20049;-72
2021/01/21 04:23:59;;;;;;;13.55;5.70;;;;;;;2.99;88.55;98637.56;20982213;28;20591;-72
2021/01/21 04:34:00;;;;;;;11.05;5.50;;;;;;;2.97;88.54;98653.13;20980334;28;20556;-72
2021/01/21 04:44:01;;;;;;;10.57;5.07;;;;;;;3.19;86.90;98645.13;20980467;28;20460;-72
2021/01/21 04:54:04;;;;;;;6.10;3.00;;;;;;;3.98;80.29;98648.56;20979660;28;20044;-72
2021/01/21 05:04:05;;;;;;;5.00;2.03;;;;;;;5.14;73.13;98650.44;20977660;28;20052;-72
2021/01/21 05:14:06;;;;;;;6.90;1.92;;;;;;;6.10;67.75;98645.28;20978842;28;20657;-72
2021/01/21 05:24:14;;;;;;;4.80;1.60;;;;;;;6.88;64.63;98633.19;20978465;28;20581;-73
2021/01/21 05:34:17;;;;;;;4.32;1.55;;;;;;;7.26;61.39;98636.63;20976896;28;20045;-72
2021/01/21 05:44:18;;;;;;;7.68;1.67;;;;;;;7.88;58.09;98602.72;20977339;28;20053;-72
2021/01/21 05:54:20;;;;;;;4.15;0.88;;;;;;;8.40;55.65;98589.38;20990014;28;20055;-72
2021/01/21 06:04:26;;;;;;;2.45;0.93;;;;;;;8.53;55.24;98569.25;20975283;28;20645;-72
2021/01/21 06:14:28;;;;;;;2.70;1.00;;;;;;;8.80;55.18;98570.72;20992336;28;20120;-72
2021/01/21 06:24:30;;;;;;;4.15;1.20;;;;;;;9.24;55.17;98581.19;20991841;28;20044;-72
2021/01/21 06:34:33;;;;;;;2.92;1.00;;;;;;;9.23;56.00;98573.47;20972942;28;20048;-72
2021/01/21 06:44:35;;;;;;;3.78;1.00;;;;;;;9.55;56.73;98570.94;20991452;28;20428;-73
2021/01/21 06:54:37;;;;;;;2.92;0.80;;;;;;;9.48;58.13;98586.25;20990292;28;20090;-73
2021/01/21 07:04:37;;;;;;;1.85;0.68;;;;;;;9.55;60.30;98589.22;20977601;28;20097;-73
2021/01/21 07:14:40;;;;;;;3.88;0.95;;;;;;;9.82;59.71;98587.03;20994238;28;20076;-73
2021/01/21 07:24:49;;;;;;;3.72;1.50;;;;;;;9.88;59.95;98610.06;20993832;28;20045;-73
2021/01/21 07:34:50;;;;;;;4.10;1.20;;;;;;;9.87;60.23;98590.09;20992139;28;21433;-73
2021/01/21 07:44:57;;;;;;;2.85;1.00;;;;;;;9.82;61.52;98597.47;20991671;28;20196;-73
2021/01/21 07:54:59;;;;;;;1.88;0.82;;;;;;;9.95;61.02;98592.94;20991168;28;20036;-72
2021/01/21 08:05:00;;;;;;;2.13;0.75;;;;;;;9.88;60.53;98592.59;20989037;28;20056;-72
2021/01/21 08:15:03;;;;;;;2.47;0.88;;;;;;;9.72;62.24;98586.09;20988302;28;20049;-73
2021/01/21 08:25:05;;;;;;;3.95;1.30;;;;;;;9.62;63.93;98593.00;20987889;28;20052;-72
2021/01/21 08:35:06;;;;;;;3.40;0.60;;;;;;;9.85;64.28;98581.56;20986883;28;20447;-72
2021/01/21 08:45:11;;;;;;;3.25;0.80;;;;;;;10.12;64.20;98584.53;20985713;28;20044;-72
2021/01/21 08:55:12;;;;;;;1.23;0.50;;;;;;;10.48;64.01;98598.22;20985318;28;20485;-72
2021/01/21 09:05:13;;;;;;;2.75;0.80;;;;;;;10.94;62.29;98603.06;20984581;28;20032;-72
2021/01/21 09:15:15;;;;;;;0.80;0.40;;;;;;;10.94;62.57;98624.81;20985366;28;20159;-72
2021/01/21 09:25:23;;;;;;;1.63;0.50;;;;;;;10.93;66.94;98643.28;20983580;28;20083;-72
2021/01/21 09:35:24;;;;;;;2.63;0.60;;;;;;;10.58;72.64;98664.50;20983667;28;20048;-73
2021/01/21 09:45:26;;;;;;;2.45;0.60;;;;;;;10.26;75.87;98681.03;20983723;28;20051;-73
2021/01/21 09:55:28;;;;;;;2.13;0.80;;;;;;;10.36;76.41;98701.22;20982923;28;20494;-74
2021/01/21 10:05:29;;;;;;;1.15;0.50;;;;;;;10.26;78.43;98711.56;20982500;28;20047;-74
2021/01/21 10:15:30;;;;;;;2.78;0.65;;;;;;;10.01;81.63;98702.19;20982043;28;20045;-73
2021/01/21 10:25:31;;;;;;;2.03;0.88;;;;;;;10.05;78.18;98698.41;20981780;28;20044;-73
2021/01/21 10:35:32;;;;;;;3.03;1.42;;;;;;;10.18;77.10;98693.91;20984510;28;20032;-74
2021/01/21 10:45:33;;;;;;;3.03;1.02;;;;;;;10.39;74.08;98698.34;20994918;28;20071;-72
2021/01/21 10:55:34;;;;;;;1.23;0.57;;;;;;;10.51;73.28;98707.84;20996243;28;20553;-72
2021/01/21 11:05:35;;;;;;;2.03;0.80;;;;;;;10.85;73.03;98729.47;20993303;28;20182;-72
2021/01/21 11:15:36;;;;;;;3.42;1.00;;;;;;;10.69;74.23;98725.47;20993615;28;20040;-72
2021/01/21 11:25:37;;;;;;;3.55;0.90;;;;;;;10.61;74.68;98735.75;20993292;28;20040;-72
2021/01/21 11:35:42;;;;;;;1.67;0.70;;;;;;;10.45;75.81;98734.50;20991517;28;20041;-73
2021/01/21 11:45:46;;;;;;;2.80;1.10;;;;;;;9.64;84.01;98755.69;20990785;28;20044;-72
2021/01/21 11:55:47;;;;;;;2.30;0.90;;;;;;;9.48;87.74;98765.63;20974955;28;20055;-72
2021/01/21 12:05:48;;;;;;;3.35;1.33;;;;;;;9.13;91.97;98787.38;20989464;28;20036;-72
2021/01/21 12:15:49;;;;;;;2.67;0.70;;;;;;;8.80;95.23;98793.28;20987813;28;20521;-70
2021/01/21 12:25:50;;;;;;;1.30;0.47;;;;;;;8.47;96.17;98804.38;20989443;28;20562;-70
2021/01/21 12:35:51;;;;;;;1.27;0.45;;;;;;;7.79;100.00;98823.94;20988156;28;20401;-72
2021/01/21 12:45:52;;;;;;;2.50;0.50;;;;;;;7.50;98.43;98823.28;20987708;28;20098;-71
2021/01/21 12:55:53;;;;;;;2.45;0.45;;;;;;;7.21;100.00;98814.84;20987073;28;20485;-72
2021/01/21 13:05:54;;;;;;;1.55;0.52;;;;;;;7.16;98.97;98807.28;20967254;28;20048;-73
2021/01/21 13:15:55;;;;;;;4.75;1.02;;;;;;;7.02;100.00;98796.13;20983577;28;20441;-73
2021/01/21 13:25:56;;;;;;;2.83;0.60;;;;;;;7.07;99.68;98788.84;20983640;28;20036;-74
2021/01/21 13:35:57;;;;;;;3.85;0.50;;;;;;;7.18;97.80;98781.19;20982906;28;20036;-72
2021/01/21 13:45:58;;;;;;;3.25;1.10;;;;;;;7.22;98.30;98774.84;20983912;28;20072;-72
2021/01/21 13:55:59;;;;;;;3.88;0.90;;;;;;;7.25;98.32;98767.69;20984650;28;20189;-72
2021/01/21 14:06:05;;;;;;;4.00;1.07;;;;;;;7.39;96.80;98758.94;20979765;28;20086;-73
2021/01/21 14:16:06;;;;;;;6.03;1.40;;;;;;;7.51;95.32;98760.72;20995891;28;20454;-71
2021/01/21 14:26:09;;;;;;;5.75;1.63;;;;;;;7.43;96.46;98762.16;20997081;28;20040;-71
2021/01/21 14:36:10;;;;;;;3.92;1.00;;;;;;;7.62;93.82;98747.78;20993976;28;20496;-71
2021/01/21 14:46:11;;;;;;;3.03;1.13;;;;;;;7.67;94.91;98745.69;20997190;28;20114;-73
2021/01/21 14:56:13;;;;;;;7.72;2.13;;;;;;;7.67;94.00;98745.69;20994645;28;20385;-73
2021/01/21 15:06:14;;;;;;;5.10;1.40;;;;;;;7.51;96.95;98750.31;20992960;28;20072;-71
2021/01/21 15:16:15;;;;;;;5.68;1.95;;;;;;;7.48;97.58;98740.09;20993435;28;20044;-71
2021/01/21 15:26:16;;;;;;;5.25;1.85;;;;;;;7.44;98.43;98717.81;20995344;28;20033;-73
2021/01/21 15:36:17;;;;;;;7.47;1.80;;;;;;;7.45;99.38;98729.91;20978201;28;20032;-73
2021/01/21 15:46:18;;;;;;;7.95;2.13;;;;;;;7.31;100.00;98703.97;20991549;28;20488;-73
2021/01/21 15:56:19;;;;;;;6.00;2.90;;;;;;;7.17;100.00;98667.63;21004917;28;20078;-73
2021/01/21 16:06:21;;;;;;;9.20;4.10;;;;;;;7.04;100.00;98670.25;21074261;28;20055;-72
2021/01/21 16:16:23;;;;;;;12.07;4.57;;;;;;;6.97;100.00;98662.94;21080056;28;20048;-72
2021/01/21 16:26:25;;;;;;;8.07;4.03;;;;;;;7.09;100.00;98649.97;21051611;28;20518;-73
2021/01/21 16:36:26;;;;;;;8.23;4.32;;;;;;;7.15;100.00;98633.09;21051017;28;20037;-72
2021/01/21 16:46:27;;;;;;;10.75;4.75;;;;;;;6.97;100.00;98614.38;21045959;28;20064;-73
2021/01/21 16:56:29;;;;;;;7.10;4.47;;;;;;;6.87;100.00;98595.97;21039928;28;20041;-72
2021/01/21 17:06:30;;;;;;;5.03;2.72;;;;;;;6.76;100.00;98559.44;21010844;28;20048;-72
2021/01/21 17:16:31;;;;;;;9.07;4.40;;;;;;;6.70;100.00;98530.47;20985246;28;20045;-72
2021/01/21 17:26:32;;;;;;;7.55;4.43;;;;;;;6.66;100.00;98505.59;20986253;28;20044;-72
2021/01/21 17:36:33;;;;;;;11.30;5.90;;;;;;;6.80;100.00;98489.88;20983361;28;20044;-73
2021/01/21 17:46:34;;;;;;;12.23;6.07;;;;;;;6.94;100.00;98484.56;20982142;28;20435;-72
2021/01/21 17:56:36;;;;;;;14.10;7.90;;;;;;;6.93;100.00;98488.09;20981868;28;20047;-71
2021/01/21 18:06:37;;;;;;;21.35;10.70;;;;;;;6.84;100.00;98475.72;20971722;28;20044;-72
2021/01/21 18:16:38;;;;;;;19.08;10.50;;;;;;;6.68;100.00;98456.94;20986267;28;20063;-71
2021/01/21 18:26:39;;;;;;;16.65;8.95;;;;;;;6.57;100.00;98444.69;20981926;28;20075;-71
2021/01/21 18:36:40;;;;;;;15.10;8.40;;;;;;;6.59;100.00;98434.19;20980899;28;20082;-73
2021/01/21 18:46:42;;;;;;;12.68;7.63;;;;;;;6.53;100.00;98438.03;20980601;28;20045;-71
2021/01/21 18:56:43;;;;;;;13.90;7.80;;;;;;;6.59;100.00;98408.19;20966505;28;20037;-71
2021/01/21 19:06:44;;;;;;;10.00;5.45;;;;;;;7.15;100.00;98402.41;20994087;28;20047;-71
2021/01/21 19:16:45;;;;;;;9.57;4.72;;;;;;;7.46;100.00;98374.97;20993195;28;20046;-72
2021/01/21 19:26:46;;;;;;;7.47;3.75;;;;;;;7.88;96.00;98362.25;20994109;28;20041;-72
2021/01/21 19:36:47;;;;;;;6.20;3.00;;;;;;;8.19;93.27;98351.16;20990811;28;20071;-71
2021/01/21 19:46:48;;;;;;;4.80;2.15;;;;;;;8.50;89.95;98347.03;20972472;28;20041;-71
2021/01/21 19:56:50;;;;;;;5.63;1.88;;;;;;;8.84;88.88;98332.13;20990726;28;20041;-72
2021/01/21 20:06:51;;;;;;;5.10;1.80;;;;;;;9.19;87.14;98329.31;20972012;28;20381;-72
2021/01/21 20:16:55;;;;;;;5.15;2.00;;;;;;;9.29;86.24;98344.09;20988999;28;20040;-72
2021/01/21 20:26:56;;;;;;;5.53;2.35;;;;;;;9.22;87.32;98337.72;20988433;28;20407;-72
2021/01/21 20:36:57;;;;;;;4.82;2.58;;;;;;;9.13;87.58;98306.31;20986383;28;20123;-72
2021/01/21 20:46:58;;;;;;;4.20;1.85;;;;;;;9.31;84.89;98289.97;20986216;28;20044;-70
2021/01/21 20:56:59;;;;;;;6.38;2.10;;;;;;;9.39;82.73;98295.41;20985883;28;20598;-72
2021/01/21 21:07:00;;;;;;;6.10;1.55;;;;;;;9.43;81.65;98273.28;20984807;28;20528;-72
2021/01/21 21:17:01;;;;;;;3.53;1.60;;;;;;;9.54;79.58;98254.13;20966752;28;20075;-71
2021/01/21 21:27:03;;;;;;;5.38;1.92;;;;;;;9.60;79.91;98271.06;20983816;28;20037;-71
2021/01/21 21:37:04;;;;;;;3.83;1.63;;;;;;;9.42;87.90;98276.03;20983508;28;20493;-71
2021/01/21 21:47:05;;;;;;;2.35;1.05;;;;;;;9.18;90.32;98233.69;20984201;28;20484;-71
2021/01/21 21:57:06;;;;;;;6.07;1.45;;;;;;;9.06;91.86;98252.97;20984283;28;20044;-71
2021/01/21 22:07:11;;;;;;;4.15;1.75;;;;;;;8.78;95.78;98264.84;20982777;28;20450;-71
2021/01/21 22:17:12;;;;;;;4.83;2.10;;;;;;;8.76;94.82;98258.91;20982714;28;20524;-71
2021/01/21 22:27:13;;;;;;;3.28;1.67;;;;;;;8.75;93.22;98246.81;20982063;28;20459;-71
2021/01/21 22:37:14;;;;;;;5.63;1.83;;;;;;;8.92;90.71;98243.66;20993232;28;20045;-72
2021/01/21 22:47:16;;;;;;;5.55;1.70;;;;;;;8.91;89.13;98229.78;20996425;28;20060;-71
2021/01/21 22:57:17;;;;;;;4.13;1.33;;;;;;;9.08;87.02;98236.25;20996087;28;20036;-71
2021/01/21 23:07:18;;;;;;;4.43;2.17;;;;;;;9.28;84.52;98232.81;20984083;28;20455;-71
2021/01/21 23:17:23;;;;;;;5.15;1.52;;;;;;;9.13;85.06;98200.16;20987418;28;20049;-71
2021/01/21 23:27:24;;;;;;;;;;;;;;;8.98;86.02;98189.22;20987616;28;20080;-70
2021/01/21 23:37:25;;;;;;;4.80;1.65;;;;;;;9.01;86.05;98177.66;20967990;28;19925;-70
2021/01/21 23:47:26;;;;;;;3.53;1.20;;;;;;;9.09;84.68;98158.78;20985110;28;20044;-71
2021/01/21 23:57:27;;;;;;;2.38;1.08;;;;;;;9.27;82.09;98171.09;20974230;23;20042;-71
